createdAt,value
2019-04-30T00:01:39.077Z,85.48
2019-04-30T00:04:13.144Z,85.51
2019-04-30T00:06:42.953Z,85.22
2019-04-30T00:09:18.998Z,85.93
2019-04-30T00:11:46.195Z,86.74
2019-04-30T00:14:16.064Z,86.48
2019-04-30T00:16:45.754Z,86.30
2019-04-30T00:19:19.469Z,86.20
2019-04-30T00:21:50.091Z,86.74
2019-04-30T00:24:18.286Z,86.74
2019-04-30T00:26:52.295Z,87.09
2019-04-30T00:29:26.939Z,87.62
2019-04-30T00:31:51.120Z,88.23
2019-04-30T00:34:21.179Z,87.73
2019-04-30T00:36:51.051Z,87.15
2019-04-30T00:39:21.074Z,86.96
2019-04-30T00:41:50.971Z,86.85
2019-04-30T00:44:26.845Z,86.96
2019-04-30T00:46:52.526Z,86.10
2019-04-30T00:49:24.163Z,85.80
2019-04-30T00:51:57.063Z,85.78
2019-04-30T00:54:27.955Z,85.96
2019-04-30T00:57:03.620Z,85.96
2019-04-30T00:59:28.556Z,85.60
2019-04-30T01:02:20.011Z,84.95
2019-04-30T01:04:49.197Z,85.13
2019-04-30T01:07:19.152Z,85.27
2019-04-30T01:09:49.890Z,85.87
2019-04-30T01:12:25.529Z,86.42
2019-04-30T01:14:51.352Z,87.37
2019-04-30T01:17:21.135Z,86.68
2019-04-30T01:19:54.527Z,86.85
2019-04-30T01:22:28.226Z,85.59
2019-04-30T01:24:54.990Z,85.75
2019-04-30T01:27:25.151Z,86.69
2019-04-30T01:29:55.023Z,87.08
2019-04-30T01:32:24.864Z,87.89
2019-04-30T01:34:54.781Z,87.06
2019-04-30T01:37:28.747Z,86.36
2019-04-30T01:39:55.950Z,87.11
2019-04-30T01:42:25.967Z,87.14
2019-04-30T01:44:56.193Z,87.46
2019-04-30T01:47:27.848Z,88.05
2019-04-30T01:50:04.819Z,87.92
2019-04-30T01:52:52.772Z,87.54
2019-04-30T01:55:25.720Z,87.52
2019-04-30T01:57:59.082Z,87.93
2019-04-30T02:00:49.343Z,87.82
2019-04-30T02:03:20.565Z,87.55
2019-04-30T02:05:50.355Z,87.57
2019-04-30T02:08:20.250Z,87.49
2019-04-30T02:10:51.394Z,87.27
2019-04-30T02:13:21.426Z,87.55
2019-04-30T02:15:51.321Z,88.02
2019-04-30T02:18:21.139Z,87.10
2019-04-30T02:20:50.925Z,87.39
2019-04-30T02:23:20.674Z,87.05
2019-04-30T02:25:50.451Z,87.61
2019-04-30T02:28:20.199Z,87.93
2019-04-30T02:30:50.739Z,88.78
2019-04-30T02:33:20.885Z,88.87
2019-04-30T02:35:52.383Z,88.24
2019-04-30T02:38:30.244Z,87.79
2019-04-30T02:41:01.135Z,87.34
2019-04-30T02:43:33.146Z,87.25
2019-04-30T02:46:04.761Z,87.91
2019-04-30T02:48:39.710Z,88.34
2019-04-30T02:51:11.566Z,88.65
2019-04-30T02:53:53.517Z,88.48
2019-04-30T02:56:26.736Z,88.81
2019-04-30T02:58:56.584Z,87.78
2019-04-30T03:01:26.337Z,87.49
2019-04-30T03:03:56.079Z,87.74
2019-04-30T03:06:26.111Z,88.41
2019-04-30T03:08:55.899Z,88.58
2019-04-30T03:11:25.692Z,88.77
2019-04-30T03:13:55.452Z,89.00
2019-04-30T03:16:43.413Z,88.32
2019-04-30T03:19:19.538Z,87.48
2019-04-30T03:21:52.891Z,88.21
2019-04-30T03:24:22.713Z,87.68
2019-04-30T03:26:52.566Z,87.66
2019-04-30T03:29:23.927Z,88.59
2019-04-30T03:31:54.009Z,88.54
2019-04-30T03:34:25.773Z,88.45
2019-04-30T03:36:55.364Z,88.34
2019-04-30T03:39:25.126Z,88.11
2019-04-30T03:41:54.978Z,88.25
2019-04-30T03:44:25.887Z,87.88
2019-04-30T03:46:56.167Z,88.12
2019-04-30T03:49:33.053Z,88.24
2019-04-30T03:52:03.247Z,88.11
2019-04-30T03:54:33.017Z,88.21
2019-04-30T03:57:02.751Z,87.29
2019-04-30T03:59:32.502Z,86.59
2019-04-30T04:02:12.254Z,86.93
2019-04-30T04:04:45.484Z,87.25
2019-04-30T04:07:16.958Z,87.92
2019-04-30T04:09:59.793Z,88.32
2019-04-30T04:12:30.455Z,88.21
2019-04-30T04:15:03.973Z,88.32
2019-04-30T04:17:32.508Z,87.58
2019-04-30T04:20:02.787Z,87.54
2019-04-30T04:22:32.656Z,87.48
2019-04-30T04:25:02.469Z,87.77
2019-04-30T04:27:32.252Z,86.77
2019-04-30T04:30:02.054Z,85.00
2019-04-30T04:32:31.805Z,82.82
2019-04-30T04:35:01.691Z,81.72
2019-04-30T04:37:31.561Z,79.98
2019-04-30T04:40:01.331Z,80.09
2019-04-30T04:42:33.059Z,80.76
2019-04-30T04:45:03.041Z,82.23
2019-04-30T04:47:32.853Z,84.89
2019-04-30T04:50:02.767Z,84.23
2019-04-30T04:52:32.646Z,83.37
2019-04-30T04:55:02.375Z,83.27
2019-04-30T04:57:32.153Z,83.84
2019-04-30T05:00:07.155Z,84.72
2019-04-30T05:02:39.661Z,85.22
2019-04-30T05:05:10.038Z,84.95
2019-04-30T05:07:40.148Z,84.42
2019-04-30T05:10:10.414Z,84.50
2019-04-30T05:12:40.288Z,84.10
2019-04-30T05:15:10.452Z,84.36
2019-04-30T05:17:40.295Z,83.85
2019-04-30T05:20:10.287Z,82.74
2019-04-30T05:22:40.098Z,82.55
2019-04-30T05:25:10.361Z,82.31
2019-04-30T05:27:40.218Z,81.39
2019-04-30T05:30:12.181Z,81.26
2019-04-30T05:32:42.280Z,81.21
2019-04-30T05:35:12.093Z,80.84
2019-04-30T05:37:41.936Z,80.61
2019-04-30T05:40:11.948Z,79.45
2019-04-30T05:42:41.660Z,78.04
2019-04-30T05:45:11.922Z,76.65
2019-04-30T05:47:41.810Z,77.42
2019-04-30T05:50:12.408Z,76.72
2019-04-30T05:52:42.129Z,76.99
2019-04-30T05:55:12.311Z,76.62
2019-04-30T05:57:53.142Z,76.71
2019-04-30T06:00:13.992Z,77.39
2019-04-30T06:02:43.793Z,77.32
2019-04-30T06:05:13.717Z,76.58
2019-04-30T06:07:43.484Z,76.75
2019-04-30T06:10:15.401Z,76.22
2019-04-30T06:12:46.762Z,76.49
2019-04-30T06:15:19.396Z,75.96
2019-04-30T06:18:00.891Z,74.68
2019-04-30T06:20:25.438Z,68.24
2019-04-30T06:22:57.036Z,66.07
2019-04-30T06:25:33.686Z,65.23
2019-04-30T06:27:59.728Z,64.30
2019-04-30T06:30:32.186Z,63.94
2019-04-30T06:33:02.678Z,62.66
2019-04-30T06:35:32.569Z,64.02
2019-04-30T06:38:02.503Z,63.25
2019-04-30T06:40:32.396Z,62.44
2019-04-30T06:43:02.274Z,61.74
2019-04-30T06:45:32.813Z,63.25
2019-04-30T06:48:05.878Z,62.57
2019-04-30T06:50:35.732Z,62.49
2019-04-30T06:53:05.537Z,60.16
2019-04-30T06:55:35.296Z,60.69
2019-04-30T06:58:14.802Z,61.04
2019-04-30T07:00:39.983Z,61.15
2019-04-30T07:03:10.306Z,61.69
2019-04-30T07:05:40.116Z,62.87
2019-04-30T07:08:37.206Z,63.24
2019-04-30T07:11:19.589Z,64.75
2019-04-30T07:13:52.251Z,64.97
2019-04-30T07:16:22.385Z,64.52
2019-04-30T07:18:52.196Z,65.06
2019-04-30T07:21:22.008Z,65.16
2019-04-30T07:23:52.082Z,65.42
2019-04-30T07:26:24.404Z,65.52
2019-04-30T07:28:55.245Z,65.87
2019-04-30T07:31:25.199Z,65.26
2019-04-30T07:33:55.028Z,65.08
2019-04-30T07:36:42.435Z,64.94
2019-04-30T07:38:56.928Z,62.88
2019-04-30T07:41:30.813Z,62.19
2019-04-30T07:43:59.462Z,62.85
2019-04-30T07:46:29.963Z,63.06
2019-04-30T07:49:00.214Z,61.28
2019-04-30T07:51:32.062Z,61.11
2019-04-30T07:54:01.563Z,59.73
2019-04-30T07:56:37.339Z,59.13
2019-04-30T07:59:03.040Z,58.69
2019-04-30T08:01:33.123Z,59.27
2019-04-30T08:04:08.862Z,58.51
2019-04-30T08:06:39.788Z,58.48
2019-04-30T08:09:10.943Z,57.42
2019-04-30T08:11:43.446Z,56.15
2019-04-30T08:14:12.132Z,55.06
2019-04-30T08:16:41.869Z,55.62
2019-04-30T08:19:11.698Z,55.00
2019-04-30T08:21:41.562Z,56.09
2019-04-30T08:24:11.332Z,53.52
2019-04-30T08:26:41.757Z,54.02
2019-04-30T08:29:11.580Z,54.36
2019-04-30T08:31:41.355Z,52.83
2019-04-30T08:34:11.193Z,47.82
2019-04-30T08:36:40.939Z,50.40
2019-04-30T08:39:10.805Z,48.98
2019-04-30T08:41:40.637Z,50.46
2019-04-30T08:44:10.468Z,49.72
2019-04-30T08:46:40.237Z,51.09
2019-04-30T08:49:10.314Z,49.77
2019-04-30T08:51:40.639Z,48.44
2019-04-30T08:54:10.808Z,49.72
2019-04-30T08:56:40.634Z,49.67
2019-04-30T08:59:11.234Z,50.48
2019-04-30T09:01:41.329Z,50.16
2019-04-30T09:04:11.066Z,48.72
2019-04-30T09:06:41.067Z,48.44
2019-04-30T09:09:12.820Z,48.88
2019-04-30T09:11:52.435Z,49.37
2019-04-30T09:14:14.069Z,48.32
2019-04-30T09:16:44.072Z,47.41
2019-04-30T09:19:13.997Z,46.21
2019-04-30T09:21:43.721Z,47.69
2019-04-30T09:24:13.451Z,47.03
2019-04-30T09:26:43.183Z,44.18
2019-04-30T09:29:13.061Z,44.74
2019-04-30T09:31:42.809Z,44.74
2019-04-30T09:34:16.999Z,43.62
2019-04-30T09:36:43.999Z,45.31
2019-04-30T09:39:13.952Z,44.68
2019-04-30T09:41:43.738Z,45.68
2019-04-30T09:44:13.476Z,44.23
2019-04-30T09:46:43.226Z,43.92
2019-04-30T09:49:12.992Z,44.36
2019-04-30T09:51:42.827Z,42.30
2019-04-30T09:54:13.458Z,42.64
2019-04-30T09:56:43.628Z,45.44
2019-04-30T09:59:13.364Z,44.67
2019-04-30T10:01:43.293Z,42.03
2019-04-30T10:04:13.573Z,41.65
2019-04-30T10:06:43.589Z,40.61
2019-04-30T10:09:14.715Z,45.15
2019-04-30T10:11:59.558Z,41.83
2019-04-30T10:14:29.397Z,41.61
2019-04-30T10:17:12.843Z,42.20
2019-04-30T10:19:42.595Z,43.96
2019-04-30T10:22:12.425Z,39.76
2019-04-30T10:24:42.194Z,41.83
2019-04-30T10:27:13.470Z,39.68
2019-04-30T10:29:43.589Z,39.82
2019-04-30T10:32:13.334Z,40.74
2019-04-30T10:34:43.020Z,38.60
2019-04-30T10:37:13.347Z,38.99
2019-04-30T10:39:43.109Z,37.89
2019-04-30T10:42:12.809Z,37.58
2019-04-30T10:44:42.518Z,39.95
2019-04-30T10:47:12.448Z,37.18
2019-04-30T10:49:44.186Z,36.10
2019-04-30T10:52:14.002Z,39.42
2019-04-30T10:54:43.846Z,39.78
2019-04-30T10:57:13.536Z,40.99
2019-04-30T10:59:43.317Z,41.10
2019-04-30T11:02:13.079Z,37.85
2019-04-30T11:04:42.776Z,37.76
2019-04-30T11:07:12.550Z,39.46
2019-04-30T11:09:42.380Z,38.52
2019-04-30T11:12:12.129Z,38.71
2019-04-30T11:14:41.898Z,37.31
2019-04-30T11:17:11.646Z,39.21
2019-04-30T11:19:41.622Z,39.48
2019-04-30T11:22:11.702Z,39.54
2019-04-30T11:24:56.692Z,41.53
2019-04-30T11:27:13.511Z,40.13
2019-04-30T11:29:43.936Z,39.07
2019-04-30T11:32:15.548Z,37.49
2019-04-30T11:34:45.417Z,39.28
2019-04-30T11:37:15.247Z,37.45
2019-04-30T11:39:45.199Z,37.63
2019-04-30T11:42:14.944Z,37.27
2019-04-30T11:44:44.835Z,36.22
2019-04-30T11:47:23.468Z,37.49
2019-04-30T11:49:53.327Z,37.35
2019-04-30T11:52:23.311Z,37.38
2019-04-30T11:54:54.628Z,35.97
2019-04-30T11:57:24.659Z,37.53
2019-04-30T11:59:54.425Z,38.06
2019-04-30T12:02:25.885Z,37.38
2019-04-30T12:04:55.595Z,38.22
2019-04-30T12:07:26.977Z,39.06
2019-04-30T12:10:01.113Z,37.68
2019-04-30T12:12:30.846Z,36.68
2019-04-30T12:15:02.743Z,36.75
2019-04-30T12:17:32.012Z,38.88
2019-04-30T12:20:01.758Z,38.59
2019-04-30T12:22:31.655Z,39.27
2019-04-30T12:25:03.241Z,37.66
2019-04-30T12:27:33.099Z,37.66
2019-04-30T12:30:03.243Z,37.51
2019-04-30T12:32:35.188Z,37.21
2019-04-30T12:35:06.201Z,37.43
2019-04-30T12:37:35.961Z,37.52
2019-04-30T12:40:09.531Z,37.99
2019-04-30T12:42:40.965Z,38.51
2019-04-30T12:45:10.961Z,39.38
2019-04-30T12:47:42.433Z,38.12
2019-04-30T12:50:19.565Z,40.11
2019-04-30T12:52:53.553Z,40.07
2019-04-30T12:55:29.395Z,40.07
2019-04-30T12:58:01.571Z,40.87
2019-04-30T13:00:31.905Z,40.23
2019-04-30T13:03:01.903Z,39.35
2019-04-30T13:05:31.786Z,40.15
2019-04-30T13:08:02.385Z,40.29
2019-04-30T13:10:33.015Z,40.25
2019-04-30T13:13:03.488Z,38.79
2019-04-30T13:15:33.390Z,40.97
2019-04-30T13:18:03.219Z,38.91
2019-04-30T13:20:33.171Z,38.84
2019-04-30T13:23:03.062Z,40.93
2019-04-30T13:25:35.594Z,39.34
2019-04-30T13:28:06.040Z,40.06
2019-04-30T13:30:36.341Z,39.81
2019-04-30T13:33:13.516Z,41.05
2019-04-30T13:35:43.264Z,40.22
2019-04-30T13:38:14.721Z,41.04
2019-04-30T13:40:49.082Z,41.24
2019-04-30T13:43:23.205Z,41.02
2019-04-30T13:45:53.008Z,42.14
2019-04-30T13:48:22.836Z,43.08
2019-04-30T13:50:52.676Z,42.05
2019-04-30T13:53:22.441Z,43.78
2019-04-30T13:55:52.189Z,43.85
2019-04-30T13:58:21.946Z,44.89
2019-04-30T14:00:51.763Z,45.02
2019-04-30T14:03:26.145Z,43.16
2019-04-30T14:05:55.963Z,41.88
2019-04-30T14:08:30.223Z,43.56
2019-04-30T14:10:59.990Z,44.76
2019-04-30T14:13:29.860Z,44.63
2019-04-30T14:15:59.725Z,45.38
2019-04-30T14:18:33.840Z,46.41
2019-04-30T14:21:01.253Z,46.91
2019-04-30T14:23:31.071Z,47.78
2019-04-30T14:26:01.265Z,48.74
2019-04-30T14:28:31.160Z,49.00
2019-04-30T14:31:00.922Z,48.26
2019-04-30T14:33:30.627Z,47.53
2019-04-30T14:36:00.837Z,47.47
2019-04-30T14:38:31.219Z,47.91
2019-04-30T14:41:02.022Z,47.29
2019-04-30T14:43:42.389Z,47.31
2019-04-30T14:46:13.462Z,47.53
2019-04-30T14:48:51.744Z,47.59
2019-04-30T14:51:21.777Z,47.74
2019-04-30T14:53:53.761Z,47.66
2019-04-30T14:56:25.295Z,48.15
2019-04-30T14:59:12.722Z,47.64
2019-04-30T15:01:44.032Z,47.27
2019-04-30T15:04:13.995Z,48.25
2019-04-30T15:06:43.675Z,48.69
2019-04-30T15:09:13.971Z,47.38
2019-04-30T15:11:43.719Z,48.14
2019-04-30T15:14:13.497Z,48.64
2019-04-30T15:16:43.170Z,48.41
2019-04-30T15:19:12.898Z,46.58
2019-04-30T15:21:42.695Z,46.65
2019-04-30T15:24:14.029Z,46.76
2019-04-30T15:26:43.850Z,46.83
2019-04-30T15:29:16.157Z,46.10
2019-04-30T15:31:45.127Z,46.05
2019-04-30T15:34:14.897Z,45.79
2019-04-30T15:36:44.577Z,46.09
2019-04-30T15:39:25.263Z,45.60
2019-04-30T15:41:54.933Z,45.13
2019-04-30T15:44:24.722Z,46.04
2019-04-30T15:46:54.472Z,45.92
2019-04-30T15:49:24.183Z,45.59
2019-04-30T15:51:53.940Z,44.18
2019-04-30T15:54:23.911Z,45.11
2019-04-30T15:56:53.670Z,42.82
2019-04-30T15:59:31.010Z,43.64
2019-04-30T16:02:02.325Z,44.02
2019-04-30T16:04:49.986Z,45.05
2019-04-30T16:07:19.748Z,44.93
2019-04-30T16:10:00.431Z,45.10
2019-04-30T16:12:49.803Z,45.54
2019-04-30T16:15:19.670Z,45.45
2019-04-30T16:17:51.075Z,45.46
2019-04-30T16:20:20.873Z,45.67
2019-04-30T16:22:50.558Z,46.57
2019-04-30T16:25:20.325Z,45.45
2019-04-30T16:27:50.015Z,45.32
2019-04-30T16:30:19.935Z,46.33
2019-04-30T16:32:50.731Z,46.20
2019-04-30T16:35:20.461Z,45.60
2019-04-30T16:37:50.233Z,46.79
2019-04-30T16:40:19.991Z,45.95
2019-04-30T16:42:49.944Z,46.44
2019-04-30T16:45:19.755Z,47.08
2019-04-30T16:47:49.513Z,47.39
2019-04-30T16:50:19.378Z,46.69
2019-04-30T16:52:49.805Z,47.77
2019-04-30T16:55:19.830Z,47.34
2019-04-30T16:57:50.268Z,47.42
2019-04-30T17:00:21.472Z,47.94
2019-04-30T17:02:52.835Z,48.08
2019-04-30T17:05:24.165Z,48.56
2019-04-30T17:08:10.751Z,48.95
2019-04-30T17:10:42.156Z,49.31
2019-04-30T17:13:19.823Z,50.07
2019-04-30T17:16:03.354Z,48.83
2019-04-30T17:18:33.041Z,48.74
2019-04-30T17:21:02.797Z,49.31
2019-04-30T17:23:32.504Z,49.90
2019-04-30T17:26:02.282Z,48.97
2019-04-30T17:28:31.987Z,49.54
2019-04-30T17:31:01.693Z,49.12
2019-04-30T17:33:31.420Z,49.95
2019-04-30T17:36:01.173Z,51.19
2019-04-30T17:38:31.244Z,51.50
2019-04-30T17:41:01.060Z,52.86
2019-04-30T17:43:30.768Z,53.47
2019-04-30T17:46:00.436Z,54.49
2019-04-30T17:48:33.367Z,55.35
2019-04-30T17:51:03.050Z,55.63
2019-04-30T17:53:33.811Z,56.25
2019-04-30T17:56:03.574Z,57.01
2019-04-30T17:58:33.273Z,57.66
2019-04-30T18:01:04.618Z,57.82
2019-04-30T18:03:34.329Z,58.47
2019-04-30T18:06:04.142Z,58.94
2019-04-30T18:08:33.921Z,58.63
2019-04-30T18:11:03.602Z,59.13
2019-04-30T18:13:33.377Z,59.57
2019-04-30T18:16:03.053Z,59.55
2019-04-30T18:18:34.467Z,60.01
2019-04-30T18:21:05.864Z,59.80
2019-04-30T18:23:42.984Z,60.03
2019-04-30T18:26:14.308Z,59.79
2019-04-30T18:28:44.102Z,59.98
2019-04-30T18:31:13.842Z,60.87
2019-04-30T18:33:43.618Z,61.38
2019-04-30T18:36:13.308Z,62.20
2019-04-30T18:38:43.012Z,62.73
2019-04-30T18:41:12.698Z,63.12
2019-04-30T18:43:42.491Z,62.90
2019-04-30T18:46:12.260Z,63.34
2019-04-30T18:48:44.009Z,63.34
2019-04-30T18:51:30.115Z,63.72
2019-04-30T18:53:47.026Z,64.49
2019-04-30T18:56:16.678Z,64.93
2019-04-30T18:58:48.519Z,65.47
2019-04-30T19:01:18.012Z,65.57
2019-04-30T19:03:49.256Z,66.06
2019-04-30T19:06:26.185Z,66.45
2019-04-30T19:08:58.483Z,66.45
2019-04-30T19:11:45.842Z,66.54
2019-04-30T19:14:19.246Z,66.72
2019-04-30T19:16:53.757Z,66.96
2019-04-30T19:19:31.142Z,67.52
2019-04-30T19:22:00.857Z,68.12
2019-04-30T19:24:30.557Z,68.52
2019-04-30T19:27:00.345Z,69.06
2019-04-30T19:29:30.207Z,69.61
2019-04-30T19:31:59.981Z,70.11
2019-04-30T19:34:31.691Z,71.03
2019-04-30T19:37:01.213Z,71.74
2019-04-30T19:39:32.544Z,71.87
2019-04-30T19:42:02.414Z,72.33
2019-04-30T19:44:32.183Z,72.75
2019-04-30T19:47:02.167Z,73.87
2019-04-30T19:49:32.184Z,75.09
2019-04-30T19:52:08.603Z,76.24
2019-04-30T19:54:34.905Z,77.25
2019-04-30T19:57:05.338Z,78.44
2019-04-30T19:59:35.148Z,79.41
2019-04-30T20:02:05.375Z,80.30
2019-04-30T20:04:36.482Z,81.34
2019-04-30T20:07:08.755Z,81.87
2019-04-30T20:09:38.786Z,81.98
2019-04-30T20:12:10.652Z,82.23
2019-04-30T20:14:40.769Z,83.07
2019-04-30T20:17:13.120Z,83.58
2019-04-30T20:19:42.498Z,83.94
2019-04-30T20:22:13.084Z,85.10
2019-04-30T20:24:43.161Z,85.26
2019-04-30T20:27:13.633Z,85.39
2019-04-30T20:29:43.481Z,85.82
2019-04-30T20:32:13.462Z,86.28
2019-04-30T20:34:43.213Z,87.00
2019-04-30T20:37:12.933Z,86.89
2019-04-30T20:39:59.328Z,87.27
2019-04-30T20:42:29.117Z,87.62
2019-04-30T20:44:58.968Z,87.55
2019-04-30T20:47:30.001Z,88.75
2019-04-30T20:49:59.854Z,88.67
2019-04-30T20:52:32.227Z,88.71
2019-04-30T20:55:01.030Z,88.73
2019-04-30T20:57:30.913Z,89.41
2019-04-30T21:00:00.596Z,89.40
2019-04-30T21:02:30.521Z,89.88
2019-04-30T21:05:00.366Z,90.43
2019-04-30T21:07:30.082Z,90.19
2019-04-30T21:10:00.420Z,90.34
2019-04-30T21:12:30.236Z,90.58
2019-04-30T21:15:00.098Z,90.61
2019-04-30T21:17:30.064Z,90.38
2019-04-30T21:20:00.983Z,90.20
2019-04-30T21:22:31.587Z,90.62
2019-04-30T21:25:01.339Z,90.29
2019-04-30T21:27:31.430Z,90.37
2019-04-30T21:30:01.097Z,90.55
2019-04-30T21:32:49.067Z,90.45
2019-04-30T21:35:20.407Z,90.30
2019-04-30T21:37:50.118Z,90.73
2019-04-30T21:40:19.803Z,90.80
2019-04-30T21:42:49.587Z,90.78
2019-04-30T21:45:20.318Z,90.94
2019-04-30T21:47:56.387Z,90.67
2019-04-30T21:50:21.639Z,90.81
2019-04-30T21:52:51.342Z,90.82
2019-04-30T21:55:21.235Z,90.66
2019-04-30T21:57:50.997Z,90.58
2019-04-30T22:00:22.960Z,91.04
2019-04-30T22:02:52.838Z,91.39
2019-04-30T22:05:22.689Z,91.03
2019-04-30T22:07:52.345Z,91.07
2019-04-30T22:10:22.220Z,91.00
2019-04-30T22:12:51.935Z,91.11
2019-04-30T22:15:21.764Z,90.94
2019-04-30T22:17:51.528Z,90.82
2019-04-30T22:20:21.227Z,91.45
2019-04-30T22:22:50.946Z,91.37
2019-04-30T22:25:20.763Z,92.03
2019-04-30T22:27:50.441Z,91.69
2019-04-30T22:30:20.378Z,91.24
2019-04-30T22:32:50.345Z,90.64
2019-04-30T22:35:21.744Z,91.29
2019-04-30T22:37:53.133Z,91.23
2019-04-30T22:40:22.868Z,91.37
2019-04-30T22:42:52.632Z,91.63
2019-04-30T22:45:24.222Z,91.61
2019-04-30T22:47:53.956Z,91.32
2019-04-30T22:50:23.729Z,91.24
2019-04-30T22:52:53.509Z,91.52
2019-04-30T22:55:23.225Z,91.66
2019-04-30T22:57:52.971Z,91.16
2019-04-30T23:00:27.383Z,90.98
2019-04-30T23:02:58.734Z,91.18
2019-04-30T23:05:28.549Z,91.36
2019-04-30T23:07:58.348Z,91.23
2019-04-30T23:10:28.055Z,91.66
2019-04-30T23:12:57.950Z,91.57
2019-04-30T23:15:27.704Z,91.79
2019-04-30T23:18:00.808Z,91.41
2019-04-30T23:20:30.837Z,91.28
2019-04-30T23:23:00.514Z,91.12
2019-04-30T23:25:30.287Z,91.22
2019-04-30T23:27:59.983Z,91.19
2019-04-30T23:30:30.245Z,91.29
2019-04-30T23:32:59.951Z,91.01
2019-04-30T23:35:29.808Z,91.22
2019-04-30T23:37:59.544Z,90.88
2019-04-30T23:40:44.348Z,91.49
2019-04-30T23:43:14.012Z,91.19
2019-04-30T23:45:43.800Z,91.06
2019-04-30T23:48:14.610Z,91.43
2019-04-30T23:50:45.072Z,90.92
2019-04-30T23:56:12.686Z,90.73
2019-04-30T23:58:46.165Z,90.40
